createdAt,value
2018-04-28T00:00:05.598Z,14.40
2018-04-28T00:02:35.707Z,14.38
2018-04-28T00:05:03.741Z,14.37
2018-04-28T00:07:31.545Z,14.31
2018-04-28T00:09:59.363Z,14.29
2018-04-28T00:12:27.464Z,14.30
2018-04-28T00:14:55.499Z,14.29
2018-04-28T00:17:23.295Z,14.31
2018-04-28T00:19:51.089Z,14.28
2018-04-28T00:22:18.881Z,14.23
2018-04-28T00:28:03.594Z,14.09
2018-04-28T00:30:35.071Z,13.87
2018-04-28T00:36:06.009Z,13.78
2018-04-28T00:38:33.829Z,13.75
2018-04-28T00:41:01.639Z,13.69
2018-04-28T00:43:29.437Z,13.48
2018-04-28T00:45:58.888Z,13.22
2018-04-28T00:48:46.072Z,13.02
2018-04-28T00:51:16.160Z,13.00
2018-04-28T00:53:44.165Z,12.95
2018-04-28T00:56:11.963Z,12.93
2018-04-28T00:58:46.071Z,13.07
2018-04-28T01:01:17.409Z,13.01
2018-04-28T01:04:02.931Z,12.96
2018-04-28T01:06:30.981Z,12.97
2018-04-28T01:08:59.364Z,12.87
2018-04-28T01:11:29.706Z,12.80
2018-04-28T01:13:58.337Z,12.89
2018-04-28T01:16:28.738Z,12.94
2018-04-28T01:19:00.331Z,12.81
2018-04-28T01:21:34.440Z,12.74
2018-04-28T01:27:15.605Z,12.36
2018-04-28T01:30:06.550Z,12.20
2018-04-28T01:35:55.205Z,11.97
2018-04-28T01:38:37.325Z,12.02
2018-04-28T01:41:11.893Z,12.00
2018-04-28T01:43:56.250Z,12.03
2018-04-28T01:46:27.657Z,11.99
2018-04-28T01:48:56.192Z,11.82
2018-04-28T01:51:31.593Z,11.67
2018-04-28T01:54:17.152Z,11.60
2018-04-28T01:56:47.302Z,11.56
2018-04-28T01:59:15.104Z,11.56
2018-04-28T02:01:42.902Z,11.55
2018-04-28T02:04:11.435Z,11.60
2018-04-28T02:06:47.117Z,11.62
2018-04-28T02:09:15.637Z,11.59
2018-04-28T02:11:45.209Z,11.52
2018-04-28T02:17:12.050Z,11.44
2018-04-28T02:19:43.377Z,11.39
2018-04-28T02:25:18.125Z,11.34
2018-04-28T02:27:50.224Z,11.26
2018-04-28T02:30:19.600Z,11.33
2018-04-28T02:32:47.405Z,11.28
2018-04-28T02:35:36.617Z,11.22
2018-04-28T02:41:14.137Z,11.18
2018-04-28T02:43:53.459Z,11.16
2018-04-28T02:46:24.062Z,11.10
2018-04-28T02:48:58.622Z,11.09
2018-04-28T02:51:28.177Z,11.03
2018-04-28T02:53:57.817Z,10.89
2018-04-28T02:56:30.421Z,11.07
2018-04-28T02:59:04.668Z,11.06
2018-04-28T03:01:42.617Z,11.16
2018-04-28T03:04:11.200Z,11.17
2018-04-28T03:06:43.445Z,11.21
2018-04-28T03:09:12.263Z,11.15
2018-04-28T03:11:43.805Z,11.14
2018-04-28T03:14:19.305Z,11.10
2018-04-28T03:16:55.923Z,11.04
2018-04-28T03:19:24.669Z,11.01
2018-04-28T03:21:52.475Z,10.99
2018-04-28T03:24:32.789Z,10.99
2018-04-28T03:27:03.337Z,10.99
2018-04-28T03:29:34.775Z,11.02
2018-04-28T03:32:03.223Z,10.99
2018-04-28T03:34:36.882Z,10.99
2018-04-28T03:37:08.442Z,10.99
2018-04-28T03:39:40.733Z,10.98
2018-04-28T03:42:11.299Z,10.83
2018-04-28T03:44:44.558Z,10.97
2018-04-28T03:47:32.093Z,11.02
2018-04-28T03:50:00.127Z,11.03
2018-04-28T03:52:27.960Z,11.06
2018-04-28T03:54:57.084Z,11.05
2018-04-28T03:57:37.470Z,11.06
2018-04-28T04:00:16.828Z,10.98
2018-04-28T04:02:56.183Z,10.91
2018-04-28T04:08:42.101Z,10.82
2018-04-28T04:11:22.437Z,10.86
2018-04-28T04:17:17.544Z,10.87
2018-04-28T04:19:56.968Z,10.92
2018-04-28T04:25:50.863Z,11.05
2018-04-28T04:28:37.002Z,11.13
2018-04-28T04:31:14.138Z,11.19
2018-04-28T04:33:43.541Z,11.25
2018-04-28T04:36:16.819Z,11.28
2018-04-28T04:38:46.363Z,11.31
2018-04-28T04:41:29.600Z,11.39
2018-04-28T04:47:23.497Z,11.47
2018-04-28T04:53:15.134Z,11.58
2018-04-28T04:55:55.393Z,11.69
2018-04-28T05:01:56.224Z,11.85
2018-04-28T05:04:26.320Z,11.91
2018-04-28T05:10:35.094Z,11.88
2018-04-28T05:16:13.677Z,11.93
2018-04-28T05:18:53.429Z,11.92
2018-04-28T05:21:25.808Z,12.05
2018-04-28T05:24:04.368Z,12.18
2018-04-28T05:29:52.521Z,12.40
2018-04-28T05:32:28.112Z,12.54
2018-04-28T05:37:56.838Z,12.83
2018-04-28T05:40:36.259Z,12.99
2018-04-28T05:43:15.869Z,13.09
2018-04-28T05:45:55.452Z,13.20
2018-04-28T05:48:30.803Z,13.29
2018-04-28T05:51:04.307Z,13.45
2018-04-28T05:53:41.695Z,13.51
2018-04-28T05:59:43.601Z,13.71
2018-04-28T06:05:34.329Z,13.83
2018-04-28T06:08:39.577Z,13.90
2018-04-28T06:11:22.320Z,14.05
2018-04-28T06:14:01.561Z,14.14
2018-04-28T06:16:37.065Z,14.29
2018-04-28T06:19:10.658Z,14.44
2018-04-28T06:21:39.024Z,14.55
2018-04-28T06:24:07.426Z,14.69
2018-04-28T06:26:35.500Z,14.83
2018-04-28T06:29:03.544Z,14.91
2018-04-28T06:31:31.587Z,14.90
2018-04-28T06:33:59.635Z,14.99
2018-04-28T06:36:28.015Z,15.04
2018-04-28T06:38:55.837Z,15.19
2018-04-28T06:41:23.885Z,15.27
2018-04-28T06:43:52.392Z,15.25
2018-04-28T06:46:20.486Z,15.31
2018-04-28T06:48:48.559Z,15.35
2018-04-28T06:51:16.958Z,15.41
2018-04-28T06:53:45.359Z,15.42
2018-04-28T06:56:13.453Z,15.52
2018-04-28T06:58:41.586Z,15.52
2018-04-28T07:01:09.771Z,15.52
2018-04-28T07:03:37.813Z,15.53
2018-04-28T07:06:05.881Z,15.32
2018-04-28T07:08:34.253Z,15.46
2018-04-28T07:11:02.300Z,15.57
2018-04-28T07:13:32.475Z,15.82
2018-04-28T07:16:00.537Z,15.82
2018-04-28T07:18:28.614Z,15.93
2018-04-28T07:20:56.441Z,16.06
2018-04-28T07:23:24.679Z,16.15
2018-04-28T07:25:53.063Z,16.23
2018-04-28T07:28:20.869Z,16.34
2018-04-28T07:30:48.697Z,16.36
2018-04-28T07:33:16.737Z,16.42
2018-04-28T07:35:44.797Z,16.50
2018-04-28T07:38:12.604Z,16.59
2018-04-28T07:40:40.647Z,16.69
2018-04-28T07:43:08.692Z,16.83
2018-04-28T07:45:36.725Z,16.91
2018-04-28T07:48:04.765Z,16.99
2018-04-28T07:50:32.828Z,17.12
2018-04-28T07:53:01.666Z,17.15
2018-04-28T07:55:29.751Z,17.21
2018-04-28T07:57:58.126Z,17.21
2018-04-28T08:00:26.531Z,17.28
2018-04-28T08:02:54.744Z,16.89
2018-04-28T08:05:22.797Z,17.32
2018-04-28T08:07:51.254Z,17.36
2018-04-28T08:10:18.909Z,17.55
2018-04-28T08:12:47.004Z,17.76
2018-04-28T08:15:15.097Z,17.89
2018-04-28T08:17:43.060Z,18.01
2018-04-28T08:20:11.132Z,18.07
2018-04-28T08:22:39.818Z,18.20
2018-04-28T08:25:07.909Z,17.30
2018-04-28T08:27:35.962Z,18.46
2018-04-28T08:30:03.592Z,18.54
2018-04-28T08:32:31.663Z,18.63
2018-04-28T08:34:59.586Z,18.71
2018-04-28T08:37:27.813Z,18.72
2018-04-28T08:39:55.743Z,18.70
2018-04-28T08:42:23.780Z,18.71
2018-04-28T08:44:51.921Z,18.77
2018-04-28T08:47:20.328Z,18.91
2018-04-28T08:49:48.726Z,18.94
2018-04-28T08:52:17.118Z,19.03
2018-04-28T08:54:46.249Z,19.09
2018-04-28T08:57:14.635Z,19.30
2018-04-28T09:02:47.076Z,19.56
2018-04-28T09:05:15.465Z,19.71
2018-04-28T09:07:43.838Z,19.94
2018-04-28T09:10:12.237Z,19.79
2018-04-28T09:12:40.618Z,19.92
2018-04-28T09:15:09.000Z,19.53
2018-04-28T09:17:37.910Z,20.00
2018-04-28T09:20:06.481Z,20.17
2018-04-28T09:22:34.856Z,20.38
2018-04-28T09:25:02.998Z,20.48
2018-04-28T09:27:31.090Z,20.36
2018-04-28T09:29:59.466Z,20.67
2018-04-28T09:32:27.614Z,20.67
2018-04-28T09:34:55.999Z,20.82
2018-04-28T09:37:24.384Z,20.85
2018-04-28T09:39:52.794Z,20.98
2018-04-28T09:42:21.734Z,21.17
2018-04-28T09:44:50.109Z,21.47
2018-04-28T09:47:18.802Z,21.78
2018-04-28T09:49:47.184Z,21.86
2018-04-28T09:52:15.563Z,22.01
2018-04-28T09:54:43.966Z,22.24
2018-04-28T09:57:12.360Z,22.17
2018-04-28T09:59:40.734Z,22.47
2018-04-28T10:02:14.424Z,22.45
2018-04-28T10:04:42.823Z,22.73
2018-04-28T10:07:11.221Z,23.00
2018-04-28T10:09:39.618Z,23.26
2018-04-28T10:12:08.014Z,23.19
2018-04-28T10:14:36.382Z,23.44
2018-04-28T10:17:04.740Z,23.60
2018-04-28T10:19:33.112Z,23.74
2018-04-28T10:22:02.314Z,24.01
2018-04-28T10:24:30.677Z,23.80
2018-04-28T10:27:00.691Z,24.17
2018-04-28T10:29:29.170Z,24.64
2018-04-28T10:31:57.542Z,24.97
2018-04-28T10:34:25.923Z,25.12
2018-04-28T10:36:54.312Z,24.90
2018-04-28T10:39:23.029Z,25.07
2018-04-28T10:41:51.428Z,25.24
2018-04-28T10:44:19.822Z,25.54
2018-04-28T10:46:48.209Z,25.70
2018-04-28T10:49:16.599Z,25.61
2018-04-28T10:51:44.978Z,25.27
2018-04-28T10:54:13.363Z,25.01
2018-04-28T10:56:41.917Z,25.42
2018-04-28T10:59:10.289Z,25.59
2018-04-28T11:01:38.653Z,25.87
2018-04-28T11:04:07.017Z,25.98
2018-04-28T11:06:35.403Z,26.06
2018-04-28T11:09:03.339Z,26.17
2018-04-28T11:11:31.712Z,26.34
2018-04-28T11:14:00.094Z,26.16
2018-04-28T11:16:29.250Z,26.29
2018-04-28T11:18:57.622Z,26.26
2018-04-28T11:21:25.759Z,26.33
2018-04-28T11:23:53.890Z,25.80
2018-04-28T11:26:22.256Z,26.24
2018-04-28T11:28:50.413Z,26.21
2018-04-28T11:31:19.190Z,26.19
2018-04-28T11:33:47.577Z,26.32
2018-04-28T11:36:15.943Z,26.54
2018-04-28T11:38:44.314Z,26.69
2018-04-28T11:41:12.685Z,26.98
2018-04-28T11:43:41.141Z,27.17
2018-04-28T11:46:09.609Z,27.23
2018-04-28T11:48:37.985Z,27.13
2018-04-28T11:51:06.356Z,26.95
2018-04-28T11:53:35.656Z,26.99
2018-04-28T11:56:04.038Z,26.91
2018-04-28T11:58:32.406Z,27.11
2018-04-28T12:01:00.798Z,27.32
2018-04-28T12:03:29.170Z,27.56
2018-04-28T12:05:57.596Z,27.57
2018-04-28T12:08:26.559Z,27.60
2018-04-28T12:10:54.961Z,27.49
2018-04-28T12:13:23.352Z,27.38
2018-04-28T12:15:51.737Z,27.40
2018-04-28T12:18:20.122Z,27.36
2018-04-28T12:20:48.549Z,27.42
2018-04-28T12:23:16.912Z,27.23
2018-04-28T12:25:45.308Z,27.12
2018-04-28T12:28:13.714Z,27.05
2018-04-28T12:30:42.085Z,27.24
2018-04-28T12:33:10.471Z,27.57
2018-04-28T12:35:38.845Z,27.66
2018-04-28T12:38:07.229Z,27.45
2018-04-28T12:40:35.599Z,27.53
2018-04-28T12:43:03.999Z,27.51
2018-04-28T12:45:33.140Z,27.29
2018-04-28T12:48:01.305Z,27.25
2018-04-28T12:50:29.728Z,27.22
2018-04-28T12:52:58.407Z,27.36
2018-04-28T12:55:26.791Z,27.47
2018-04-28T12:57:55.164Z,27.51
2018-04-28T13:00:23.537Z,27.18
2018-04-28T13:02:51.923Z,27.34
2018-04-28T13:05:20.304Z,27.44
2018-04-28T13:07:48.681Z,27.10
2018-04-28T13:10:17.083Z,27.14
2018-04-28T13:12:45.444Z,27.30
2018-04-28T13:15:14.679Z,27.45
2018-04-28T13:17:43.058Z,27.57
2018-04-28T13:20:11.441Z,27.40
2018-04-28T13:22:39.839Z,27.31
2018-04-28T13:25:08.220Z,26.81
2018-04-28T13:27:36.599Z,27.25
2018-04-28T13:30:04.693Z,27.18
2018-04-28T13:32:33.728Z,27.11
2018-04-28T13:35:02.178Z,27.17
2018-04-28T13:37:30.618Z,27.12
2018-04-28T13:39:58.984Z,27.25
2018-04-28T13:42:27.354Z,27.31
2018-04-28T13:44:55.764Z,27.05
2018-04-28T13:47:24.147Z,27.07
2018-04-28T13:49:52.524Z,27.00
2018-04-28T13:52:20.907Z,26.94
2018-04-28T13:54:49.304Z,26.96
2018-04-28T13:57:17.677Z,27.07
2018-04-28T13:59:46.057Z,26.97
2018-04-28T14:02:14.443Z,26.91
2018-04-28T14:04:42.826Z,26.90
2018-04-28T14:07:11.200Z,26.75
2018-04-28T14:09:39.599Z,26.84
2018-04-28T14:12:07.589Z,26.90
2018-04-28T14:14:35.722Z,26.97
2018-04-28T14:17:04.088Z,26.92
2018-04-28T14:19:32.447Z,26.97
2018-04-28T14:22:00.816Z,26.79
2018-04-28T14:24:29.225Z,26.69
2018-04-28T14:26:58.024Z,26.70
2018-04-28T14:29:26.521Z,26.59
2018-04-28T14:31:54.904Z,26.66
2018-04-28T14:34:23.271Z,26.66
2018-04-28T14:36:51.657Z,26.65
2018-04-28T14:39:20.038Z,26.52
2018-04-28T14:41:48.413Z,26.60
2018-04-28T14:44:16.861Z,26.54
2018-04-28T14:46:46.439Z,26.52
2018-04-28T14:49:14.814Z,26.50
2018-04-28T14:51:43.771Z,26.58
2018-04-28T14:54:12.293Z,26.61
2018-04-28T14:56:40.682Z,26.55
2018-04-28T14:59:10.005Z,26.46
2018-04-28T15:01:38.373Z,26.49
2018-04-28T15:04:06.737Z,26.29
2018-04-28T15:06:35.101Z,26.24
2018-04-28T15:09:03.217Z,26.23
2018-04-28T15:11:31.602Z,26.12
2018-04-28T15:13:59.988Z,26.25
2018-04-28T15:16:28.369Z,26.32
2018-04-28T15:18:56.789Z,26.30
2018-04-28T15:21:25.823Z,26.22
2018-04-28T15:23:54.206Z,26.04
2018-04-28T15:26:22.590Z,26.00
2018-04-28T15:28:50.965Z,26.00
2018-04-28T15:31:19.358Z,25.93
2018-04-28T15:33:47.991Z,25.87
2018-04-28T15:36:16.387Z,25.88
2018-04-28T15:38:44.771Z,25.90
2018-04-28T15:41:13.274Z,25.88
2018-04-28T15:43:42.458Z,25.81
2018-04-28T15:46:10.846Z,25.79
2018-04-28T15:48:39.231Z,25.78
2018-04-28T15:51:07.625Z,25.82
2018-04-28T15:53:36.184Z,25.74
2018-04-28T15:56:04.557Z,25.74
2018-04-28T15:58:32.929Z,25.71
2018-04-28T16:01:01.304Z,25.73
2018-04-28T16:03:29.702Z,25.71
2018-04-28T16:05:58.070Z,25.76
2018-04-28T16:08:26.481Z,25.76
2018-04-28T16:10:54.868Z,25.71
2018-04-28T16:13:23.430Z,25.70
2018-04-28T16:15:53.832Z,25.61
2018-04-28T16:18:22.194Z,25.64
2018-04-28T16:20:50.627Z,25.63
2018-04-28T16:23:18.994Z,25.63
2018-04-28T16:25:47.410Z,25.60
2018-04-28T16:28:15.868Z,25.58
2018-04-28T16:30:44.276Z,25.56
2018-04-28T16:33:12.669Z,25.51
2018-04-28T16:35:41.044Z,25.45
2018-04-28T16:38:09.426Z,25.44
2018-04-28T16:40:37.797Z,25.40
2018-04-28T16:43:06.177Z,25.38
2018-04-28T16:45:34.557Z,25.35
2018-04-28T16:48:03.123Z,25.33
2018-04-28T16:50:31.512Z,25.30
2018-04-28T16:52:59.941Z,25.30
2018-04-28T16:55:28.338Z,25.29
2018-04-28T16:57:56.741Z,25.20
2018-04-28T17:00:25.109Z,25.15
2018-04-28T17:02:54.041Z,25.13
2018-04-28T17:05:22.491Z,25.07
2018-04-28T17:07:50.872Z,25.08
2018-04-28T17:10:19.279Z,25.02
2018-04-28T17:12:47.645Z,24.98
2018-04-28T17:15:16.020Z,24.93
2018-04-28T17:17:53.719Z,24.88
2018-04-28T17:20:22.124Z,24.87
2018-04-28T17:22:50.568Z,24.85
2018-04-28T17:25:18.978Z,24.79
2018-04-28T17:27:47.353Z,24.74
2018-04-28T17:30:15.400Z,24.70
2018-04-28T17:32:43.860Z,24.62
2018-04-28T17:35:12.233Z,24.57
2018-04-28T17:37:40.620Z,24.54
2018-04-28T17:40:09.709Z,24.50
2018-04-28T17:42:38.078Z,24.37
2018-04-28T17:45:07.101Z,24.35
2018-04-28T17:47:36.042Z,24.26
2018-04-28T17:50:08.926Z,24.19
2018-04-28T17:52:37.340Z,24.13
2018-04-28T17:55:06.156Z,24.05
2018-04-28T17:57:34.585Z,24.00
2018-04-28T18:00:02.956Z,23.90
2018-04-28T18:02:32.135Z,23.83
2018-04-28T18:05:00.747Z,23.71
2018-04-28T18:07:29.134Z,23.62
2018-04-28T18:09:57.504Z,23.53
2018-04-28T18:12:25.873Z,23.46
2018-04-28T18:14:54.240Z,23.39
2018-04-28T18:17:22.618Z,23.32
2018-04-28T18:19:50.989Z,23.26
2018-04-28T18:22:19.348Z,23.15
2018-04-28T18:24:47.734Z,23.09
2018-04-28T18:27:16.107Z,23.04
2018-04-28T18:29:44.474Z,22.98
2018-04-28T18:32:12.853Z,22.93
2018-04-28T18:34:41.236Z,22.88
2018-04-28T18:37:09.993Z,22.86
2018-04-28T18:39:38.397Z,22.83
2018-04-28T18:42:06.802Z,22.77
2018-04-28T18:44:35.525Z,22.70
2018-04-28T18:47:03.888Z,22.70
2018-04-28T18:49:32.305Z,22.66
2018-04-28T18:52:00.715Z,22.58
2018-04-28T18:54:29.096Z,22.58
2018-04-28T18:56:57.238Z,22.51
2018-04-28T18:59:25.671Z,22.40
2018-04-28T19:01:54.213Z,22.38
2018-04-28T19:04:22.581Z,22.33
2018-04-28T19:06:50.966Z,22.30
2018-04-28T19:09:20.074Z,22.23
2018-04-28T19:11:48.468Z,22.13
2018-04-28T19:14:16.807Z,22.17
2018-04-28T19:16:45.490Z,21.95
2018-04-28T19:19:13.890Z,22.06
2018-04-28T19:21:42.277Z,22.02
2018-04-28T19:24:10.651Z,21.99
2018-04-28T19:26:39.033Z,21.95
2018-04-28T19:29:07.402Z,21.89
2018-04-28T19:31:35.768Z,21.84
2018-04-28T19:34:04.147Z,21.81
2018-04-28T19:36:32.529Z,21.80
2018-04-28T19:39:00.902Z,21.80
2018-04-28T19:41:29.277Z,21.78
2018-04-28T19:43:57.434Z,21.75
2018-04-28T19:46:25.816Z,21.72
2018-04-28T19:48:54.190Z,21.68
2018-04-28T19:51:22.345Z,21.66
2018-04-28T19:53:50.823Z,21.62
2018-04-28T19:56:19.307Z,21.54
2018-04-28T19:58:48.258Z,21.49
2018-04-28T20:01:16.628Z,21.49
2018-04-28T20:03:45.054Z,21.46
2018-04-28T20:06:13.447Z,21.43
2018-04-28T20:08:41.825Z,21.40
2018-04-28T20:11:10.224Z,21.35
2018-04-28T20:13:38.615Z,21.34
2018-04-28T20:16:06.993Z,21.30
2018-04-28T20:18:35.368Z,21.31
2018-04-28T20:21:03.748Z,21.27
2018-04-28T20:23:44.231Z,21.29
2018-04-28T20:26:12.625Z,21.26
2018-04-28T20:28:40.989Z,21.14
2018-04-28T20:31:10.086Z,21.18
2018-04-28T20:33:38.466Z,21.20
2018-04-28T20:36:06.888Z,21.14
2018-04-28T20:38:35.668Z,21.08
2018-04-28T20:41:04.057Z,21.07
2018-04-28T20:43:32.440Z,21.02
2018-04-28T20:46:00.868Z,20.96
2018-04-28T20:48:29.328Z,20.93
2018-04-28T20:50:57.706Z,20.92
2018-04-28T20:53:26.161Z,20.84
2018-04-28T20:55:54.557Z,20.84
2018-04-28T20:58:22.960Z,20.84
2018-04-28T21:00:51.349Z,20.85
2018-04-28T21:03:19.719Z,20.82
2018-04-28T21:05:48.114Z,20.82
2018-04-28T21:08:16.488Z,20.80
2018-04-28T21:10:44.888Z,20.80
2018-04-28T21:13:13.250Z,20.79
2018-04-28T21:15:41.624Z,20.76
2018-04-28T21:18:10.030Z,20.77
2018-04-28T21:20:38.406Z,20.79
2018-04-28T21:23:06.816Z,20.78
2018-04-28T21:25:35.190Z,20.77
2018-04-28T21:28:03.581Z,20.79
2018-04-28T21:30:31.969Z,20.74
2018-04-28T21:33:00.377Z,20.72
2018-04-28T21:35:28.929Z,20.71
2018-04-28T21:37:57.321Z,20.63
2018-04-28T21:40:25.701Z,20.60
2018-04-28T21:42:54.067Z,20.44
2018-04-28T21:45:22.211Z,20.51
2018-04-28T21:47:50.588Z,20.47
2018-04-28T21:50:18.967Z,20.43
2018-04-28T21:52:47.353Z,20.44
2018-04-28T21:55:16.328Z,20.44
2018-04-28T21:57:44.716Z,20.41
2018-04-28T22:00:13.128Z,20.43
2018-04-28T22:02:41.497Z,20.42
2018-04-28T22:05:17.378Z,20.41
2018-04-28T22:07:45.759Z,20.35
2018-04-28T22:10:17.129Z,20.31
2018-04-28T22:12:45.549Z,20.27
2018-04-28T22:17:48.427Z,20.16
2018-04-28T22:20:17.065Z,20.13
2018-04-28T22:22:45.442Z,20.11
2018-04-28T22:25:15.012Z,20.08
2018-04-28T22:27:43.433Z,20.01
2018-04-28T22:30:16.870Z,20.10
2018-04-28T22:32:45.276Z,20.10
2018-04-28T22:35:13.777Z,20.07
2018-04-28T22:37:42.164Z,20.07
2018-04-28T22:40:21.805Z,20.13
2018-04-28T22:42:50.176Z,20.14
2018-04-28T22:45:18.671Z,20.18
2018-04-28T22:47:47.089Z,20.18
2018-04-28T22:50:17.047Z,20.20
2018-04-28T22:52:45.441Z,20.18
2018-04-28T22:55:13.835Z,20.14
2018-04-28T22:57:42.209Z,20.08
2018-04-28T23:00:15.052Z,19.43
2018-04-28T23:02:43.453Z,20.07
2018-04-28T23:05:15.498Z,20.06
2018-04-28T23:07:43.869Z,19.99
2018-04-28T23:10:16.493Z,19.97
2018-04-28T23:12:44.976Z,19.90
2018-04-28T23:15:14.653Z,19.86
2018-04-28T23:17:43.036Z,19.80
2018-04-28T23:20:11.412Z,19.69
2018-04-28T23:22:39.795Z,19.63
2018-04-28T23:25:12.077Z,18.97
2018-04-28T23:27:40.459Z,19.53
2018-04-28T23:30:13.404Z,19.53
2018-04-28T23:32:41.817Z,19.49
2018-04-28T23:35:10.215Z,19.42
2018-04-28T23:37:38.630Z,19.37
2018-04-28T23:40:15.125Z,19.33
2018-04-28T23:42:43.511Z,19.30
2018-04-28T23:45:12.602Z,19.28
2018-04-28T23:47:40.987Z,19.31
2018-04-28T23:50:16.472Z,19.34
2018-04-28T23:52:44.625Z,19.35
2018-04-28T23:55:14.291Z,19.22
2018-04-28T23:57:42.665Z,19.35
